createdAt,value
2023-01-30T00:01:24.480Z,98213.81
2023-01-30T00:03:52.790Z,98206.34
2023-01-30T00:06:20.774Z,98211.75
2023-01-30T00:08:48.375Z,98203.31
2023-01-30T00:11:17.800Z,98202.16
2023-01-30T00:13:46.001Z,98202.75
2023-01-30T00:16:13.654Z,98201.75
2023-01-30T00:18:43.459Z,98201.56
2023-01-30T00:21:13.934Z,98204.00
2023-01-30T00:23:42.334Z,98206.91
2023-01-30T00:26:11.544Z,98209.94
2023-01-30T00:28:39.442Z,98197.84
2023-01-30T00:31:07.840Z,98199.19
2023-01-30T00:33:38.013Z,98204.03
2023-01-30T00:36:08.474Z,98197.78
2023-01-30T00:38:36.676Z,98199.00
2023-01-30T00:41:04.830Z,98196.75
2023-01-30T00:43:34.090Z,98191.66
2023-01-30T00:46:04.611Z,98192.75
2023-01-30T00:48:32.223Z,98190.69
2023-01-30T00:50:59.963Z,98195.69
2023-01-30T00:53:29.006Z,98202.84
2023-01-30T00:55:56.969Z,98202.59
2023-01-30T00:58:25.125Z,98208.31
2023-01-30T01:00:53.326Z,98203.91
2023-01-30T01:03:21.606Z,98210.56
2023-01-30T01:05:49.346Z,98206.84
2023-01-30T01:08:17.016Z,98201.28
2023-01-30T01:10:45.969Z,98203.91
2023-01-30T01:13:13.562Z,98196.00
2023-01-30T01:15:41.133Z,98197.06
2023-01-30T01:18:09.734Z,98198.81
2023-01-30T01:20:37.535Z,98200.47
2023-01-30T01:23:05.104Z,98200.88
2023-01-30T01:25:32.703Z,98192.38
2023-01-30T01:28:02.077Z,98198.03
2023-01-30T01:30:29.727Z,98193.34
2023-01-30T01:32:57.608Z,98178.09
2023-01-30T01:35:25.164Z,98179.47
2023-01-30T01:37:53.362Z,98186.00
2023-01-30T01:40:23.370Z,98184.63
2023-01-30T01:42:51.133Z,98187.50
2023-01-30T01:45:23.350Z,98186.94
2023-01-30T01:48:03.145Z,98183.66
2023-01-30T01:50:42.399Z,98179.66
2023-01-30T01:53:13.527Z,98180.13
2023-01-30T01:55:44.875Z,98178.63
2023-01-30T01:58:18.531Z,98178.16
2023-01-30T02:00:49.075Z,98172.69
2023-01-30T02:03:23.730Z,98171.56
2023-01-30T02:05:55.576Z,98178.53
2023-01-30T02:08:27.632Z,98182.22
2023-01-30T02:11:03.227Z,98186.25
2023-01-30T02:13:33.044Z,98190.03
2023-01-30T02:16:03.864Z,98183.28
2023-01-30T02:18:34.273Z,98186.34
2023-01-30T02:21:27.488Z,98182.94
2023-01-30T02:24:31.229Z,98184.13
2023-01-30T02:27:24.365Z,98176.66
2023-01-30T02:30:27.100Z,98176.13
2023-01-30T02:33:12.112Z,98181.16
2023-01-30T02:35:54.221Z,98183.28
2023-01-30T02:38:36.228Z,98187.25
2023-01-30T02:41:20.267Z,98186.72
2023-01-30T02:44:00.106Z,98195.91
2023-01-30T02:46:39.331Z,98189.03
2023-01-30T02:49:14.572Z,98186.38
2023-01-30T02:51:46.038Z,98193.47
2023-01-30T02:54:15.671Z,98192.03
2023-01-30T02:56:46.475Z,98202.25
2023-01-30T02:59:21.192Z,98207.44
2023-01-30T03:02:18.346Z,98206.47
2023-01-30T03:05:07.574Z,98213.88
2023-01-30T03:07:44.907Z,98206.25
2023-01-30T03:10:32.103Z,98212.31
2023-01-30T03:13:10.326Z,98228.44
2023-01-30T03:15:46.646Z,98247.72
2023-01-30T03:18:15.987Z,98248.09
2023-01-30T03:20:45.509Z,98253.19
2023-01-30T03:23:13.366Z,98248.88
2023-01-30T03:25:46.074Z,98245.84
2023-01-30T03:28:19.883Z,98237.63
2023-01-30T03:30:47.925Z,98250.16
2023-01-30T03:33:15.618Z,98256.69
2023-01-30T03:35:45.016Z,98265.28
2023-01-30T03:38:12.780Z,98262.34
2023-01-30T03:40:40.735Z,98247.53
2023-01-30T03:43:08.281Z,98260.91
2023-01-30T03:45:36.210Z,98275.25
2023-01-30T03:48:04.183Z,98270.56
2023-01-30T03:50:31.936Z,98277.22
2023-01-30T03:53:00.871Z,98271.94
2023-01-30T03:55:28.443Z,98280.34
2023-01-30T03:57:57.449Z,98276.25
2023-01-30T04:00:25.201Z,98281.81
2023-01-30T04:02:53.149Z,98269.22
2023-01-30T04:05:21.215Z,98269.28
2023-01-30T04:07:50.431Z,98266.19
2023-01-30T04:10:19.609Z,98266.38
2023-01-30T04:12:47.578Z,98254.63
2023-01-30T04:15:15.427Z,98248.75
2023-01-30T04:17:43.674Z,98252.47
2023-01-30T04:20:11.693Z,98241.84
2023-01-30T04:22:39.409Z,98250.34
2023-01-30T04:25:07.571Z,98257.28
2023-01-30T04:27:36.586Z,98255.81
2023-01-30T04:30:05.266Z,98249.47
2023-01-30T04:32:32.967Z,98241.44
2023-01-30T04:35:01.925Z,98231.28
2023-01-30T04:37:29.467Z,98231.09
2023-01-30T04:39:57.097Z,98246.94
2023-01-30T04:42:24.769Z,98235.88
2023-01-30T04:44:53.946Z,98235.75
2023-01-30T04:47:21.509Z,98238.72
2023-01-30T04:49:49.093Z,98232.47
2023-01-30T04:52:16.936Z,98227.75
2023-01-30T04:54:44.548Z,98232.28
2023-01-30T04:57:12.178Z,98242.50
2023-01-30T04:59:39.829Z,98241.63
2023-01-30T05:02:08.877Z,98248.56
2023-01-30T05:04:37.496Z,98241.53
2023-01-30T05:07:05.712Z,98243.91
2023-01-30T05:09:33.315Z,98227.19
2023-01-30T05:12:01.075Z,98213.09
2023-01-30T05:14:28.634Z,98210.25
2023-01-30T05:16:56.315Z,98191.34
2023-01-30T05:19:25.288Z,98204.22
2023-01-30T05:21:53.115Z,98201.88
2023-01-30T05:24:20.802Z,98206.25
2023-01-30T05:26:48.461Z,98216.09
2023-01-30T05:29:16.248Z,98211.53
2023-01-30T05:31:43.945Z,98215.44
2023-01-30T05:34:12.611Z,98209.69
2023-01-30T05:36:41.627Z,98201.75
2023-01-30T05:39:09.596Z,98198.25
2023-01-30T05:41:37.374Z,98195.13
2023-01-30T05:44:05.375Z,98193.38
2023-01-30T05:46:33.040Z,98191.91
2023-01-30T05:49:00.737Z,98194.34
2023-01-30T05:51:28.487Z,98198.25
2023-01-30T05:53:57.483Z,98200.88
2023-01-30T05:56:25.168Z,98207.53
2023-01-30T05:58:54.495Z,98198.47
2023-01-30T06:01:24.587Z,98199.00
2023-01-30T06:03:53.196Z,98195.22
2023-01-30T06:06:21.983Z,98197.38
2023-01-30T06:08:53.435Z,98197.44
2023-01-30T06:11:25.409Z,98215.44
2023-01-30T06:13:53.258Z,98203.13
2023-01-30T06:16:21.267Z,98203.72
2023-01-30T06:18:49.155Z,98216.63
2023-01-30T06:21:17.966Z,98218.88
2023-01-30T06:23:46.839Z,98218.28
2023-01-30T06:26:14.560Z,98216.03
2023-01-30T06:28:47.189Z,98215.34
2023-01-30T06:31:15.152Z,98212.91
2023-01-30T06:33:48.535Z,98210.56
2023-01-30T06:36:17.458Z,98222.19
2023-01-30T06:38:45.403Z,98237.53
2023-01-30T06:41:13.160Z,98235.38
2023-01-30T06:43:43.296Z,98236.66
2023-01-30T06:46:12.222Z,98232.25
2023-01-30T06:48:40.144Z,98220.94
2023-01-30T06:51:08.013Z,98226.09
2023-01-30T06:53:35.666Z,98229.09
2023-01-30T06:56:03.643Z,98225.72
2023-01-30T06:58:31.527Z,98221.59
2023-01-30T07:01:01.600Z,98218.88
2023-01-30T07:03:34.034Z,98230.88
2023-01-30T07:06:01.784Z,98215.34
2023-01-30T07:08:29.960Z,98211.91
2023-01-30T07:10:58.303Z,98201.88
2023-01-30T07:13:25.854Z,98199.78
2023-01-30T07:15:55.889Z,98204.97
2023-01-30T07:18:24.979Z,98193.16
2023-01-30T07:20:53.956Z,98195.31
2023-01-30T07:23:26.016Z,98190.44
2023-01-30T07:25:55.931Z,98182.84
2023-01-30T07:28:23.738Z,98224.13
2023-01-30T07:30:54.118Z,98244.72
2023-01-30T07:33:21.936Z,98261.72
2023-01-30T07:35:51.195Z,98258.56
2023-01-30T07:38:18.846Z,98251.53
2023-01-30T07:40:46.571Z,98271.75
2023-01-30T07:43:14.945Z,98273.66
2023-01-30T07:45:45.573Z,98270.72
2023-01-30T07:48:15.633Z,98276.75
2023-01-30T07:53:27.180Z,98273.69
2023-01-30T07:55:54.738Z,98281.13
2023-01-30T07:58:22.605Z,98279.38
2023-01-30T08:00:50.252Z,98293.16
2023-01-30T08:03:21.141Z,98296.25
2023-01-30T08:05:48.698Z,98298.00
2023-01-30T08:08:16.526Z,98302.22
2023-01-30T08:10:48.763Z,98296.66
2023-01-30T08:13:16.840Z,98291.69
2023-01-30T08:15:44.531Z,98302.13
2023-01-30T08:18:12.315Z,98292.84
2023-01-30T08:20:39.958Z,98291.88
2023-01-30T08:23:08.540Z,98300.69
2023-01-30T08:25:37.797Z,98308.31
2023-01-30T08:28:06.870Z,98293.44
2023-01-30T08:30:34.517Z,98284.16
2023-01-30T08:33:02.122Z,98269.16
2023-01-30T08:35:29.768Z,98279.44
2023-01-30T08:37:57.622Z,98287.28
2023-01-30T08:40:25.279Z,98282.69
2023-01-30T08:42:52.903Z,98293.72
2023-01-30T08:45:21.895Z,98288.34
2023-01-30T08:47:49.703Z,98295.94
2023-01-30T08:50:17.840Z,98307.00
2023-01-30T08:52:45.665Z,98295.19
2023-01-30T08:55:13.331Z,98297.31
2023-01-30T08:57:40.907Z,98296.50
2023-01-30T09:00:11.520Z,98300.22
2023-01-30T09:02:41.093Z,98293.38
2023-01-30T09:05:10.013Z,98301.59
2023-01-30T09:07:40.063Z,98293.78
2023-01-30T09:10:09.286Z,98285.97
2023-01-30T09:12:37.228Z,98293.09
2023-01-30T09:15:07.358Z,98300.44
2023-01-30T09:17:42.052Z,98322.53
2023-01-30T09:20:12.689Z,98317.84
2023-01-30T09:22:41.932Z,98311.03
2023-01-30T09:25:09.788Z,98306.44
2023-01-30T09:27:37.361Z,98316.50
2023-01-30T09:30:06.983Z,98321.78
2023-01-30T09:32:34.539Z,98322.50
2023-01-30T09:35:02.172Z,98311.88
2023-01-30T09:37:31.199Z,98315.06
2023-01-30T09:39:58.868Z,98310.00
2023-01-30T09:42:54.813Z,98310.66
2023-01-30T09:45:51.816Z,98309.94
2023-01-30T09:48:29.686Z,98322.75
2023-01-30T09:51:19.474Z,98327.03
2023-01-30T09:54:13.315Z,98332.31
2023-01-30T09:56:43.176Z,98333.91
2023-01-30T09:59:23.423Z,98329.06
2023-01-30T10:02:01.124Z,98321.72
2023-01-30T10:04:34.616Z,98315.81
2023-01-30T10:07:16.569Z,98321.88
2023-01-30T10:09:59.432Z,98328.63
2023-01-30T10:12:42.724Z,98327.53
2023-01-30T10:15:32.324Z,98331.09
2023-01-30T10:18:19.643Z,98338.56
2023-01-30T10:21:00.340Z,98348.22
2023-01-30T10:23:52.990Z,98353.09
2023-01-30T10:26:26.800Z,98342.47
2023-01-30T10:29:07.239Z,98347.94
2023-01-30T10:31:43.877Z,98362.00
2023-01-30T10:34:19.910Z,98356.06
2023-01-30T10:36:55.937Z,98354.47
2023-01-30T10:39:36.896Z,98354.16
2023-01-30T10:42:12.386Z,98351.47
2023-01-30T10:44:41.180Z,98353.00
2023-01-30T10:47:34.710Z,98348.03
2023-01-30T10:50:16.676Z,98356.22
2023-01-30T10:52:56.537Z,98350.50
2023-01-30T10:55:37.678Z,98362.69
2023-01-30T10:58:17.428Z,98357.81
2023-01-30T11:00:56.384Z,98361.41
2023-01-30T11:03:35.400Z,98359.16
2023-01-30T11:06:10.429Z,98359.59
2023-01-30T11:08:38.543Z,98377.41
2023-01-30T11:11:29.290Z,98363.28
2023-01-30T11:14:06.434Z,98370.50
2023-01-30T11:16:46.872Z,98356.59
2023-01-30T11:19:20.821Z,98352.47
2023-01-30T11:21:53.590Z,98362.69
2023-01-30T11:24:24.297Z,98343.13
2023-01-30T11:26:51.973Z,98329.88
2023-01-30T11:29:29.664Z,98316.50
2023-01-30T11:32:03.946Z,98316.81
2023-01-30T11:34:32.137Z,98309.84
2023-01-30T11:37:26.832Z,98290.34
2023-01-30T11:39:54.536Z,98290.38
2023-01-30T11:42:31.565Z,98293.19
2023-01-30T11:45:16.313Z,98294.44
2023-01-30T11:47:57.782Z,98304.19
2023-01-30T11:50:35.238Z,98303.34
2023-01-30T11:53:14.343Z,98300.44
2023-01-30T11:55:52.950Z,98292.66
2023-01-30T11:58:33.135Z,98296.44
2023-01-30T12:01:03.206Z,98286.31
2023-01-30T12:03:32.627Z,98271.88
2023-01-30T12:06:00.414Z,98261.91
2023-01-30T12:08:43.103Z,98253.53
2023-01-30T12:11:29.819Z,98245.16
2023-01-30T12:14:12.864Z,98228.47
2023-01-30T12:16:57.510Z,98221.75
2023-01-30T12:19:39.913Z,98216.66
2023-01-30T12:22:21.197Z,98223.31
2023-01-30T12:24:58.533Z,98227.81
2023-01-30T12:27:42.768Z,98239.38
2023-01-30T12:30:25.238Z,98227.50
2023-01-30T12:36:00.251Z,98226.66
2023-01-30T12:38:46.280Z,98228.78
2023-01-30T12:41:30.587Z,98227.22
2023-01-30T12:44:17.505Z,98228.69
2023-01-30T12:47:04.145Z,98222.47
2023-01-30T12:49:54.663Z,98222.22
2023-01-30T12:52:51.759Z,98204.34
2023-01-30T12:55:32.401Z,98203.28
2023-01-30T12:58:10.532Z,98190.19
2023-01-30T13:00:56.415Z,98195.66
2023-01-30T13:03:35.726Z,98184.03
2023-01-30T13:06:24.222Z,98183.34
2023-01-30T13:09:09.762Z,98182.72
2023-01-30T13:11:48.040Z,98182.25
2023-01-30T13:14:25.958Z,98180.81
2023-01-30T13:17:15.401Z,98171.44
2023-01-30T13:19:51.983Z,98166.09
2023-01-30T13:22:28.131Z,98160.75
2023-01-30T13:25:06.164Z,98170.56
2023-01-30T13:27:38.732Z,98168.69
2023-01-30T13:30:15.996Z,98177.13
2023-01-30T13:32:49.809Z,98166.47
2023-01-30T13:35:24.154Z,98165.69
2023-01-30T13:37:55.099Z,98166.31
2023-01-30T13:40:27.686Z,98166.31
2023-01-30T13:43:02.013Z,98180.00
2023-01-30T13:45:37.953Z,98184.31
2023-01-30T13:48:24.724Z,98178.50
2023-01-30T13:51:15.080Z,98176.72
2023-01-30T13:53:53.937Z,98168.34
2023-01-30T13:56:41.827Z,98180.19
2023-01-30T13:59:25.138Z,98165.97
2023-01-30T14:02:19.155Z,98164.88
2023-01-30T14:04:49.620Z,98174.06
2023-01-30T14:07:24.573Z,98189.53
2023-01-30T14:10:13.860Z,98191.81
2023-01-30T14:12:44.861Z,98185.56
2023-01-30T14:15:25.846Z,98180.41
2023-01-30T14:18:03.647Z,98185.03
2023-01-30T14:20:34.385Z,98168.31
2023-01-30T14:23:06.487Z,98169.53
2023-01-30T14:25:47.766Z,98188.63
2023-01-30T14:28:48.756Z,98189.59
2023-01-30T14:31:50.127Z,98176.03
2023-01-30T14:35:16.517Z,98185.09
2023-01-30T14:37:50.370Z,98193.94
2023-01-30T14:40:35.822Z,98183.88
2023-01-30T14:43:36.582Z,98190.34
2023-01-30T14:46:08.500Z,98202.28
2023-01-30T14:51:21.079Z,98199.25
2023-01-30T14:53:57.051Z,98203.63
2023-01-30T14:56:44.960Z,98191.94
2023-01-30T14:59:26.328Z,98187.88
2023-01-30T15:02:07.261Z,98201.69
2023-01-30T15:04:44.062Z,98189.59
2023-01-30T15:07:17.364Z,98198.38
2023-01-30T15:09:55.296Z,98214.63
2023-01-30T15:12:45.509Z,98216.66
2023-01-30T15:15:37.612Z,98198.59
2023-01-30T15:18:35.987Z,98201.81
2023-01-30T15:21:33.948Z,98194.31
2023-01-30T15:24:25.461Z,98200.06
2023-01-30T15:27:09.399Z,98198.41
2023-01-30T15:30:18.359Z,98189.78
2023-01-30T15:32:49.063Z,98201.69
2023-01-30T15:35:23.501Z,98189.34
2023-01-30T15:37:53.518Z,98192.13
2023-01-30T15:40:24.878Z,98193.81
2023-01-30T15:43:08.779Z,98204.97
2023-01-30T15:45:46.631Z,98203.06
2023-01-30T15:48:41.471Z,98204.44
2023-01-30T15:51:13.587Z,98208.09
2023-01-30T15:53:44.191Z,98214.81
2023-01-30T15:56:19.149Z,98213.75
2023-01-30T15:58:47.346Z,98207.84
2023-01-30T16:01:20.262Z,98197.50
2023-01-30T16:03:50.716Z,98202.47
2023-01-30T16:06:24.704Z,98216.97
2023-01-30T16:08:57.785Z,98211.56
2023-01-30T16:11:39.497Z,98214.50
2023-01-30T16:14:12.826Z,98210.91
2023-01-30T16:16:48.310Z,98213.44
2023-01-30T16:19:26.208Z,98211.59
2023-01-30T16:21:59.847Z,98214.84
2023-01-30T16:24:29.474Z,98223.41
2023-01-30T16:27:01.889Z,98229.66
2023-01-30T16:29:33.442Z,98239.63
2023-01-30T16:32:01.424Z,98236.19
2023-01-30T16:34:33.894Z,98236.03
2023-01-30T16:37:05.522Z,98236.50
2023-01-30T16:39:35.105Z,98230.72
2023-01-30T16:42:17.120Z,98238.16
2023-01-30T16:44:44.769Z,98235.59
2023-01-30T16:47:24.793Z,98229.66
2023-01-30T16:49:56.397Z,98228.63
2023-01-30T16:52:31.249Z,98233.53
2023-01-30T16:55:02.833Z,98237.63
2023-01-30T16:57:37.683Z,98233.88
2023-01-30T17:00:19.501Z,98235.13
2023-01-30T17:02:54.124Z,98244.13
2023-01-30T17:05:26.625Z,98240.41
2023-01-30T17:07:55.374Z,98250.84
2023-01-30T17:11:04.922Z,98246.50
2023-01-30T17:13:37.623Z,98250.16
2023-01-30T17:16:30.488Z,98244.13
2023-01-30T17:18:58.379Z,98243.66
2023-01-30T17:21:31.492Z,98242.88
2023-01-30T17:24:02.346Z,98256.47
2023-01-30T17:26:30.804Z,98267.53
2023-01-30T17:28:59.105Z,98267.53
2023-01-30T17:31:27.051Z,98268.00
2023-01-30T17:33:54.850Z,98269.72
2023-01-30T17:36:27.873Z,98264.25
2023-01-30T17:38:57.893Z,98274.53
2023-01-30T17:41:28.601Z,98272.22
2023-01-30T17:43:57.165Z,98266.28
2023-01-30T17:46:33.433Z,98271.44
2023-01-30T17:49:01.138Z,98274.72
2023-01-30T17:51:31.501Z,98273.81
2023-01-30T17:53:59.191Z,98277.53
2023-01-30T17:56:32.765Z,98271.13
2023-01-30T17:59:00.426Z,98278.94
2023-01-30T18:01:28.164Z,98287.03
2023-01-30T18:03:55.959Z,98287.69
2023-01-30T18:06:24.432Z,98291.25
2023-01-30T18:08:53.573Z,98300.59
2023-01-30T18:11:22.687Z,98297.50
2023-01-30T18:13:51.228Z,98301.69
2023-01-30T18:16:23.008Z,98301.56
2023-01-30T18:18:51.279Z,98294.84
2023-01-30T18:21:18.924Z,98297.81
2023-01-30T18:23:46.807Z,98301.53
2023-01-30T18:26:16.729Z,98294.84
2023-01-30T18:28:44.835Z,98301.41
2023-01-30T18:31:12.634Z,98309.63
2023-01-30T18:33:41.312Z,98305.44
2023-01-30T18:36:11.565Z,98307.63
2023-01-30T18:38:43.193Z,98308.88
2023-01-30T18:41:13.700Z,98310.84
2023-01-30T18:43:44.265Z,98306.69
2023-01-30T18:46:13.690Z,98304.81
2023-01-30T18:48:42.617Z,98317.59
2023-01-30T18:51:12.101Z,98315.53
2023-01-30T18:53:40.830Z,98315.56
2023-01-30T18:56:10.506Z,98323.50
2023-01-30T18:58:38.294Z,98314.34
2023-01-30T19:01:13.987Z,98316.34
2023-01-30T19:03:42.428Z,98316.72
2023-01-30T19:06:11.958Z,98318.34
2023-01-30T19:08:39.901Z,98310.53
2023-01-30T19:11:09.792Z,98315.66
2023-01-30T19:13:37.526Z,98314.72
2023-01-30T19:16:06.056Z,98322.47
2023-01-30T19:18:35.388Z,98321.03
2023-01-30T19:21:03.775Z,98322.78
2023-01-30T19:23:31.478Z,98320.94
2023-01-30T19:25:59.922Z,98328.88
2023-01-30T19:28:30.781Z,98327.38
2023-01-30T19:30:58.521Z,98322.31
2023-01-30T19:33:26.135Z,98326.59
2023-01-30T19:35:55.537Z,98325.47
2023-01-30T19:38:23.913Z,98328.97
2023-01-30T19:40:51.549Z,98330.59
2023-01-30T19:43:19.262Z,98325.00
2023-01-30T19:45:57.560Z,98330.78
2023-01-30T19:48:26.095Z,98328.69
2023-01-30T19:50:58.146Z,98343.97
2023-01-30T19:53:25.779Z,98342.59
2023-01-30T19:55:54.057Z,98344.53
2023-01-30T19:58:21.707Z,98339.72
2023-01-30T20:00:49.601Z,98338.63
2023-01-30T20:03:17.550Z,98347.34
2023-01-30T20:05:45.382Z,98341.25
2023-01-30T20:08:30.519Z,98340.75
2023-01-30T20:11:03.980Z,98332.81
2023-01-30T20:13:33.569Z,98335.78
2023-01-30T20:16:06.299Z,98332.16
2023-01-30T20:18:35.742Z,98333.41
2023-01-30T20:21:07.649Z,98334.53
2023-01-30T20:23:39.759Z,98332.94
2023-01-30T20:26:12.854Z,98327.34
2023-01-30T20:28:42.589Z,98332.59
2023-01-30T20:31:12.635Z,98339.13
2023-01-30T20:33:41.124Z,98340.22
2023-01-30T20:36:10.936Z,98339.16
2023-01-30T20:38:41.810Z,98342.41
2023-01-30T20:41:11.648Z,98338.94
2023-01-30T20:43:42.827Z,98338.78
2023-01-30T20:46:13.095Z,98332.31
2023-01-30T20:48:41.197Z,98333.50
2023-01-30T20:51:11.465Z,98336.16
2023-01-30T20:53:47.837Z,98343.50
2023-01-30T20:56:17.580Z,98348.25
2023-01-30T20:58:46.524Z,98344.72
2023-01-30T21:01:18.228Z,98345.81
2023-01-30T21:03:47.769Z,98344.09
2023-01-30T21:06:37.153Z,98340.28
2023-01-30T21:09:07.923Z,98339.03
2023-01-30T21:11:35.671Z,98337.94
2023-01-30T21:14:04.169Z,98335.97
2023-01-30T21:16:35.017Z,98327.00
2023-01-30T21:19:06.479Z,98328.88
2023-01-30T21:21:39.195Z,98325.03
2023-01-30T21:24:13.234Z,98323.50
2023-01-30T21:26:44.954Z,98317.84
2023-01-30T21:29:14.356Z,98319.91
2023-01-30T21:31:43.270Z,98332.00
2023-01-30T21:34:14.405Z,98329.81
2023-01-30T21:36:42.251Z,98331.09
2023-01-30T21:39:13.565Z,98336.44
2023-01-30T21:41:46.134Z,98340.59
2023-01-30T21:44:14.267Z,98327.69
2023-01-30T21:46:44.761Z,98321.88
2023-01-30T21:49:13.571Z,98315.28
2023-01-30T21:51:42.532Z,98311.06
2023-01-30T21:54:12.535Z,98315.22
2023-01-30T21:56:41.211Z,98314.44
2023-01-30T21:59:09.527Z,98316.72
2023-01-30T22:01:41.042Z,98315.59
2023-01-30T22:04:11.078Z,98325.13
2023-01-30T22:06:39.894Z,98321.84
2023-01-30T22:09:08.352Z,98308.50
2023-01-30T22:11:38.988Z,98318.28
2023-01-30T22:14:06.882Z,98305.44
2023-01-30T22:16:34.631Z,98307.34
2023-01-30T22:19:04.667Z,98304.09
2023-01-30T22:21:34.659Z,98298.09
2023-01-30T22:24:05.053Z,98298.69
2023-01-30T22:26:32.926Z,98303.38
2023-01-30T22:29:04.406Z,98308.06
2023-01-30T22:31:36.399Z,98297.44
2023-01-30T22:34:04.659Z,98302.09
2023-01-30T22:36:34.055Z,98314.09
2023-01-30T22:39:08.277Z,98312.28
2023-01-30T22:41:36.366Z,98311.00
2023-01-30T22:44:09.733Z,98320.31
2023-01-30T22:46:39.789Z,98314.13
2023-01-30T22:49:09.381Z,98312.03
2023-01-30T22:51:39.543Z,98315.53
2023-01-30T22:54:10.137Z,98310.50
2023-01-30T22:56:39.848Z,98308.66
2023-01-30T22:59:10.309Z,98308.34
2023-01-30T23:01:39.658Z,98307.69
2023-01-30T23:04:13.092Z,98314.38
2023-01-30T23:06:41.841Z,98316.59
2023-01-30T23:09:13.194Z,98314.94
2023-01-30T23:11:43.287Z,98308.09
2023-01-30T23:14:14.380Z,98316.31
2023-01-30T23:16:44.197Z,98321.22
2023-01-30T23:19:13.339Z,98317.19
2023-01-30T23:21:44.113Z,98318.38
2023-01-30T23:24:14.392Z,98324.13
2023-01-30T23:26:47.166Z,98323.13
2023-01-30T23:29:20.090Z,98312.97
2023-01-30T23:31:48.392Z,98305.34
2023-01-30T23:34:18.907Z,98322.38
2023-01-30T23:36:46.765Z,98317.28
2023-01-30T23:39:15.161Z,98315.72
2023-01-30T23:41:44.229Z,98323.13
2023-01-30T23:44:11.888Z,98328.72
2023-01-30T23:46:42.487Z,98320.81
2023-01-30T23:49:13.894Z,98325.00
2023-01-30T23:51:44.221Z,98323.09
2023-01-30T23:54:13.486Z,98308.22
2023-01-30T23:56:44.931Z,98307.81
2023-01-30T23:59:12.866Z,98305.66
